The Farmers Guide 72-hour weather forecast

Enter Postcode:

Cloudy with outbreaks of Rain

(00:00)

13.0°C

IP2 0SS

Wind Soil
Date Time Weather Temp Rain Humid Cloud Press (mph) Temp Moist
31/05 00:00 13.0°C 0.6mm 86% 100% 1013mb 20n (351 degrees) 12.7°C 0.2%
03:00 12.9°C 0.3mm 89% 100% 1012mb 21nnw (345 degrees) 12.6°C 0.2%
06:00 12.9°C 1.8mm 96% 100% 1011mb 20nnw (348 degrees) 12.5°C 0.2%
09:00 14.1°C 2.2mm 95% 100% 1011mb 19n (353 degrees) 12.6°C 0.2%
12:00 14.9°C 2.4mm 92% 100% 1012mb 17n (359 degrees) 12.7°C 0.2%
15:00 16.4°C 0.0mm 88% 93% 1013mb 15n (5 degrees) 12.9°C 0.2%
18:00 15.2°C 0.2mm 91% 95% 1014mb 15n (5 degrees) 13.1°C 0.2%
21:00 14.4°C 0.0mm 92% 99% 1016mb 13n (6 degrees) 13.1°C 0.2%
01/06 00:00 14.1°C 0.2mm 93% 99% 1017mb 12n (2 degrees) 13.1°C 0.2%
03:00 13.6°C 0.0mm 94% 95% 1017mb 12n (359 degrees) 13.0°C 0.2%
06:00 13.9°C 0.0mm 93% 97% 1018mb 12n (359 degrees) 13.0°C 0.2%
09:00 15.9°C 0.0mm 88% 100% 1018mb 13n (1 degrees) 13.2°C 0.2%
12:00 17.6°C 0.0mm 85% 99% 1018mb 12n (3 degrees) 13.4°C 0.2%
15:00 18.1°C 0.0mm 85% 99% 1018mb 13n (358 degrees) 13.8°C 0.2%
18:00 15.6°C 1.1mm 95% 99% 1018mb 14n (357 degrees) 14.0°C 0.2%
21:00 14.1°C 0.7mm 96% 100% 1019mb 15n (0 degrees) 13.9°C 0.2%
02/06 00:00 12.8°C 0.8mm 95% 95% 1018mb 16n (357 degrees) 13.8°C 0.2%
03:00 13.2°C 0.0mm 94% 94% 1017mb 16n (1 degrees) 13.5°C 0.2%
06:00 13.4°C 0.0mm 92% 97% 1017mb 17n (6 degrees) 13.4°C 0.2%
09:00 14.1°C 0.0mm 89% 99% 1017mb 18n (6 degrees) 13.3°C 0.2%
12:00 14.4°C 0.2mm 85% 99% 1018mb 18n (4 degrees) 13.3°C 0.2%
15:00 14.0°C 0.0mm 85% 100% 1018mb 18n (5 degrees) 13.3°C 0.2%
18:00 12.6°C 0.0mm 86% 98% 1018mb 18n (5 degrees) 13.3°C 0.2%
21:00 11.4°C 0.0mm 85% 100% 1018mb 17n (4 degrees) 13.1°C 0.2%
The Farmers Guide weather forecast is a free service for users of this website.
 
We now carry forecasts based on postcodes. Just enter your postcode and the weather page will display the forecast for the following 72 hours, broken down into three-hour intervals.
 
The forecast data provided for each three-hour period includes: a general graphic showing the likely weather conditions; average temperatures for the period; cloud cover; barometric pressure; wind speed and direction; humidity; and rainfall.
 
An indication of the likely soil temperature and soil moisture will also be displayed for most postcodes, although this data is not available for every area.
 
We hope you will find this service useful and would welcome any feedback from you.
 
 

Search

Read our full May issue here FREE!

Advertisements